createdAt,value
2018-06-23T00:02:01.915Z,38.69
2018-06-23T00:04:33.870Z,38.69
2018-06-23T00:07:06.522Z,38.70
2018-06-23T00:09:38.780Z,38.64
2018-06-23T00:12:11.192Z,38.64
2018-06-23T00:14:43.493Z,38.67
2018-06-23T00:17:15.936Z,38.66
2018-06-23T00:19:48.436Z,38.65
2018-06-23T00:22:20.901Z,38.65
2018-06-23T00:24:53.300Z,38.64
2018-06-23T00:27:26.001Z,38.63
2018-06-23T00:29:58.079Z,38.62
2018-06-23T00:32:30.246Z,38.63
2018-06-23T00:35:02.600Z,38.62
2018-06-23T00:37:35.237Z,38.61
2018-06-23T00:40:07.745Z,38.60
2018-06-23T00:42:39.876Z,38.58
2018-06-23T00:45:12.173Z,38.60
2018-06-23T00:47:44.971Z,38.55
2018-06-23T00:50:17.132Z,38.55
2018-06-23T00:52:49.565Z,38.57
2018-06-23T00:55:22.151Z,38.55
2018-06-23T00:57:54.960Z,38.51
2018-06-23T01:00:27.733Z,38.46
2018-06-23T01:03:00.942Z,38.46
2018-06-23T01:05:33.369Z,38.48
2018-06-23T01:08:05.888Z,38.47
2018-06-23T01:10:37.866Z,38.46
2018-06-23T01:13:09.934Z,38.49
2018-06-23T01:15:42.278Z,38.47
2018-06-23T01:18:14.628Z,38.45
2018-06-23T01:20:47.127Z,38.44
2018-06-23T01:23:19.744Z,38.46
2018-06-23T01:25:51.660Z,38.44
2018-06-23T01:28:24.312Z,38.42
2018-06-23T01:30:56.854Z,38.42
2018-06-23T01:33:28.987Z,38.43
2018-06-23T01:36:01.335Z,38.42
2018-06-23T01:38:33.670Z,38.42
2018-06-23T01:41:05.618Z,38.41
2018-06-23T01:43:39.163Z,38.43
2018-06-23T01:46:11.330Z,38.43
2018-06-23T01:48:43.755Z,38.41
2018-06-23T01:51:15.675Z,38.40
2018-06-23T01:53:48.569Z,38.39
2018-06-23T01:56:21.093Z,38.40
2018-06-23T01:58:53.424Z,38.42
2018-06-23T02:01:25.663Z,38.42
2018-06-23T02:03:58.134Z,38.42
2018-06-23T02:06:30.256Z,38.45
2018-06-23T02:09:03.373Z,38.42
2018-06-23T02:11:35.740Z,38.38
2018-06-23T02:14:12.907Z,38.39
2018-06-23T02:16:49.438Z,38.40
2018-06-23T02:19:26.940Z,38.37
2018-06-23T02:22:03.552Z,38.38
2018-06-23T02:24:40.183Z,38.39
2018-06-23T02:27:16.858Z,38.39
2018-06-23T02:29:53.756Z,38.38
2018-06-23T02:32:30.577Z,38.37
2018-06-23T02:35:08.304Z,38.39
2018-06-23T02:37:40.750Z,38.39
2018-06-23T02:40:14.127Z,38.37
2018-06-23T02:42:46.298Z,38.35
2018-06-23T02:45:18.585Z,38.39
2018-06-23T02:47:50.593Z,38.38
2018-06-23T02:50:22.757Z,38.38
2018-06-23T02:52:55.563Z,38.39
2018-06-23T02:55:27.918Z,38.37
2018-06-23T02:58:00.060Z,38.38
2018-06-23T03:00:32.360Z,38.38
2018-06-23T03:03:04.557Z,38.38
2018-06-23T03:05:37.526Z,38.37
2018-06-23T03:08:10.162Z,38.39
2018-06-23T03:10:42.097Z,38.41
2018-06-23T03:13:14.514Z,38.41
2018-06-23T03:15:47.481Z,38.40
2018-06-23T03:18:19.696Z,38.39
2018-06-23T03:20:51.768Z,38.39
2018-06-23T03:23:24.775Z,38.39
2018-06-23T03:25:57.094Z,38.39
2018-06-23T03:28:29.428Z,38.34
2018-06-23T03:31:01.912Z,38.35
2018-06-23T03:33:33.869Z,38.38
2018-06-23T03:36:05.784Z,38.40
2018-06-23T03:38:37.782Z,38.39
2018-06-23T03:41:09.854Z,38.41
2018-06-23T03:43:42.059Z,38.44
2018-06-23T03:46:14.575Z,38.44
2018-06-23T03:48:46.908Z,38.45
2018-06-23T03:51:19.240Z,38.41
2018-06-23T03:53:51.536Z,38.43
2018-06-23T03:56:24.093Z,38.44
2018-06-23T03:58:56.698Z,38.43
2018-06-23T04:01:29.487Z,38.47
2018-06-23T04:04:01.942Z,38.48
2018-06-23T04:06:34.669Z,38.50
2018-06-23T04:09:09.717Z,38.50
2018-06-23T04:11:42.027Z,38.50
2018-06-23T04:14:14.279Z,38.47
2018-06-23T04:16:47.374Z,38.52
2018-06-23T04:19:19.879Z,38.49
2018-06-23T04:27:33.604Z,38.29
2018-06-23T04:30:07.065Z,38.40
2018-06-23T04:32:40.041Z,38.42
2018-06-23T04:35:11.951Z,38.49
2018-06-23T04:37:45.399Z,38.49
2018-06-23T04:40:18.671Z,38.38
2018-06-23T04:42:51.363Z,37.93
2018-06-23T04:45:23.892Z,37.64
2018-06-23T04:47:56.233Z,38.08
2018-06-23T04:50:28.796Z,38.14
2018-06-23T04:53:01.744Z,38.17
2018-06-23T04:55:34.794Z,38.23
2018-06-23T04:58:07.737Z,38.29
2018-06-23T05:00:40.596Z,38.38
2018-06-23T05:03:12.714Z,38.40
2018-06-23T05:05:44.986Z,38.40
2018-06-23T05:08:17.184Z,38.42
2018-06-23T05:10:49.710Z,38.43
2018-06-23T05:13:22.962Z,38.47
2018-06-23T05:15:55.581Z,38.43
2018-06-23T05:18:27.968Z,38.42
2018-06-23T05:20:59.893Z,38.36
2018-06-23T05:23:33.354Z,38.42
2018-06-23T05:26:05.928Z,38.36
2018-06-23T05:28:40.229Z,38.45
2018-06-23T05:31:13.098Z,38.49
2018-06-23T05:33:45.292Z,38.50
2018-06-23T05:36:18.345Z,38.55
2018-06-23T05:38:51.007Z,38.56
2018-06-23T05:41:23.668Z,38.57
2018-06-23T05:43:56.353Z,38.43
2018-06-23T05:46:29.792Z,38.53
2018-06-23T05:49:02.905Z,38.62
2018-06-23T05:51:35.504Z,38.62
2018-06-23T05:54:08.309Z,38.60
2018-06-23T05:56:40.656Z,38.64
2018-06-23T05:59:13.873Z,38.65
2018-06-23T06:01:46.968Z,38.64
2018-06-23T06:04:19.686Z,38.68
2018-06-23T06:06:52.578Z,38.69
2018-06-23T06:09:25.270Z,38.71
2018-06-23T06:11:57.527Z,38.73
2018-06-23T06:14:30.667Z,38.72
2018-06-23T06:17:40.766Z,38.74
2018-06-23T06:20:14.762Z,38.72
2018-06-23T06:22:47.933Z,38.72
2018-06-23T06:25:22.996Z,38.70
2018-06-23T06:27:55.993Z,38.71
2018-06-23T06:30:28.662Z,38.73
2018-06-23T06:33:01.076Z,38.76
2018-06-23T06:35:33.888Z,38.79
2018-06-23T06:38:06.664Z,38.77
2018-06-23T06:40:39.690Z,38.81
2018-06-23T06:43:11.869Z,38.77
2018-06-23T06:45:44.595Z,38.77
2018-06-23T06:48:16.875Z,38.79
2018-06-23T06:50:49.644Z,38.83
2018-06-23T06:53:23.515Z,38.87
2018-06-23T06:55:56.090Z,38.90
2018-06-23T06:58:28.958Z,38.93
2018-06-23T07:01:02.232Z,38.89
2018-06-23T07:03:34.753Z,38.95
2018-06-23T07:06:07.794Z,38.96
2018-06-23T07:08:40.223Z,38.95
2018-06-23T07:11:13.648Z,38.93
2018-06-23T07:13:46.580Z,38.90
2018-06-23T07:16:18.887Z,38.94
2018-06-23T07:18:51.701Z,38.98
2018-06-23T07:21:24.420Z,39.01
2018-06-23T07:23:57.112Z,39.04
2018-06-23T07:26:29.508Z,39.05
2018-06-23T07:29:02.238Z,39.10
2018-06-23T07:31:36.150Z,39.05
2018-06-23T07:34:09.226Z,39.09
2018-06-23T07:36:42.709Z,39.07
2018-06-23T07:39:15.863Z,39.07
2018-06-23T07:41:49.029Z,39.09
2018-06-23T07:44:22.366Z,39.09
2018-06-23T07:46:54.982Z,39.12
2018-06-23T07:49:27.065Z,39.16
2018-06-23T07:51:59.864Z,39.17
2018-06-23T07:54:32.063Z,39.16
2018-06-23T07:57:04.945Z,39.15
2018-06-23T07:59:37.648Z,39.01
2018-06-23T08:02:10.081Z,39.14
2018-06-23T08:04:42.391Z,39.15
2018-06-23T08:07:15.138Z,39.20
2018-06-23T08:09:47.812Z,39.25
2018-06-23T08:12:20.475Z,39.23
2018-06-23T08:14:53.384Z,39.29
2018-06-23T08:17:26.392Z,39.26
2018-06-23T08:19:59.724Z,39.26
2018-06-23T08:22:32.098Z,39.31
2018-06-23T08:25:05.046Z,39.33
2018-06-23T08:27:38.431Z,39.34
2018-06-23T08:30:11.547Z,39.36
2018-06-23T08:32:45.940Z,39.39
2018-06-23T08:35:19.172Z,39.41
2018-06-23T08:37:52.598Z,39.42
2018-06-23T08:40:25.633Z,39.38
2018-06-23T08:42:58.335Z,39.41
2018-06-23T08:45:30.834Z,39.41
2018-06-23T08:48:03.917Z,39.41
2018-06-23T08:50:36.667Z,39.38
2018-06-23T08:53:10.167Z,39.41
2018-06-23T08:55:42.841Z,39.48
2018-06-23T08:58:16.180Z,39.44
2018-06-23T09:00:49.803Z,39.51
2018-06-23T09:03:22.909Z,39.65
2018-06-23T09:05:55.737Z,39.64
2018-06-23T09:08:28.904Z,39.67
2018-06-23T09:11:01.728Z,39.69
2018-06-23T09:13:34.662Z,39.67
2018-06-23T09:16:08.358Z,39.65
2018-06-23T09:18:41.438Z,39.67
2018-06-23T09:21:14.453Z,39.69
2018-06-23T09:23:47.748Z,39.64
2018-06-23T09:26:21.231Z,39.67
2018-06-23T09:35:56.894Z,39.64
2018-06-23T09:38:30.224Z,39.72
2018-06-23T09:41:03.713Z,39.74
2018-06-23T09:43:36.572Z,39.88
2018-06-23T09:46:10.329Z,39.80
2018-06-23T09:48:43.809Z,39.80
2018-06-23T09:51:17.393Z,39.76
2018-06-23T09:53:49.950Z,39.78
2018-06-23T09:56:23.535Z,39.76
2018-06-23T09:58:57.020Z,39.79
2018-06-23T10:01:31.352Z,40.00
2018-06-23T10:04:04.804Z,39.92
2018-06-23T10:06:38.228Z,39.83
2018-06-23T10:09:12.809Z,39.87
2018-06-23T10:11:47.315Z,39.85
2018-06-23T10:14:20.511Z,39.83
2018-06-23T10:16:53.490Z,39.87
2018-06-23T10:19:26.765Z,39.85
2018-06-23T10:22:00.209Z,39.89
2018-06-23T10:24:33.431Z,39.88
2018-06-23T10:27:06.481Z,39.92
2018-06-23T10:29:39.726Z,39.95
2018-06-23T10:32:13.092Z,39.93
2018-06-23T10:34:45.961Z,39.93
2018-06-23T10:37:19.946Z,39.94
2018-06-23T10:39:53.003Z,39.93
2018-06-23T10:42:26.467Z,39.91
2018-06-23T10:44:59.955Z,39.94
2018-06-23T10:47:33.488Z,39.97
2018-06-23T10:50:07.311Z,40.00
2018-06-23T10:52:40.837Z,40.02
2018-06-23T10:55:13.842Z,40.08
2018-06-23T10:57:47.815Z,40.02
2018-06-23T11:00:20.680Z,40.00
2018-06-23T11:02:53.872Z,40.01
2018-06-23T11:05:26.917Z,40.04
2018-06-23T11:08:00.546Z,40.12
2018-06-23T11:10:33.836Z,40.12
2018-06-23T11:13:07.016Z,40.27
2018-06-23T11:15:40.412Z,40.36
2018-06-23T11:18:13.666Z,40.29
2018-06-23T11:20:46.885Z,40.33
2018-06-23T11:23:20.112Z,40.30
2018-06-23T11:25:53.315Z,40.41
2018-06-23T11:28:26.429Z,40.30
2018-06-23T11:30:59.562Z,40.31
2018-06-23T11:33:33.132Z,40.18
2018-06-23T11:36:06.860Z,40.24
2018-06-23T11:38:40.049Z,40.23
2018-06-23T11:41:12.799Z,40.25
2018-06-23T11:43:46.034Z,40.20
2018-06-23T11:46:18.962Z,40.28
2018-06-23T11:48:51.618Z,40.23
2018-06-23T11:51:24.468Z,40.18
2018-06-23T11:53:57.293Z,40.21
2018-06-23T11:56:30.719Z,40.22
2018-06-23T11:59:08.174Z,40.19
2018-06-23T12:01:43.082Z,40.18
2018-06-23T12:04:27.207Z,40.19
2018-06-23T12:07:00.360Z,40.19
2018-06-23T12:09:36.122Z,40.19
2018-06-23T12:12:09.668Z,40.13
2018-06-23T12:14:44.651Z,40.13
2018-06-23T12:17:17.818Z,40.07
2018-06-23T12:19:51.156Z,40.10
2018-06-23T12:22:24.585Z,40.18
2018-06-23T12:24:59.124Z,40.08
2018-06-23T12:27:32.980Z,40.08
2018-06-23T12:30:08.404Z,40.05
2018-06-23T12:32:43.898Z,40.03
2018-06-23T12:35:17.718Z,40.01
2018-06-23T12:37:50.864Z,39.97
2018-06-23T12:40:24.519Z,40.01
2018-06-23T12:42:57.605Z,40.02
2018-06-23T12:45:30.817Z,40.03
2018-06-23T12:48:03.744Z,40.04
2018-06-23T12:50:37.829Z,40.06
2018-06-23T12:53:11.049Z,40.09
2018-06-23T12:55:44.271Z,40.10
2018-06-23T12:58:18.205Z,40.06
2018-06-23T13:00:51.276Z,40.05
2018-06-23T13:03:24.631Z,40.04
2018-06-23T13:05:58.091Z,40.01
2018-06-23T13:08:31.076Z,40.03
2018-06-23T13:11:04.695Z,40.02
2018-06-23T13:13:38.090Z,39.99
2018-06-23T13:16:11.365Z,39.98
2018-06-23T13:18:44.185Z,39.96
2018-06-23T13:21:17.201Z,39.97
2018-06-23T13:23:50.678Z,39.99
2018-06-23T13:26:24.857Z,39.99
2018-06-23T13:28:57.862Z,39.97
2018-06-23T13:31:31.255Z,39.98
2018-06-23T13:34:05.705Z,39.96
2018-06-23T13:36:38.742Z,39.97
2018-06-23T13:39:12.480Z,39.99
2018-06-23T13:41:46.225Z,39.99
2018-06-23T13:44:19.446Z,39.99
2018-06-23T13:46:52.632Z,39.97
2018-06-23T13:49:25.792Z,39.96
2018-06-23T13:51:59.106Z,39.95
2018-06-23T13:54:32.377Z,39.94
2018-06-23T13:57:05.584Z,39.92
2018-06-23T13:59:39.727Z,39.91
2018-06-23T14:02:12.960Z,39.91
2018-06-23T14:04:45.767Z,39.89
2018-06-23T14:07:19.322Z,39.90
2018-06-23T14:09:52.768Z,39.88
2018-06-23T14:12:26.189Z,39.91
2018-06-23T14:14:59.407Z,39.91
2018-06-23T14:17:32.688Z,39.89
2018-06-23T14:20:05.842Z,39.92
2018-06-23T14:22:39.107Z,39.93
2018-06-23T14:25:12.728Z,39.92
2018-06-23T14:27:46.179Z,39.91
2018-06-23T14:30:19.328Z,39.92
2018-06-23T14:32:52.513Z,39.92
2018-06-23T14:35:25.589Z,39.90
2018-06-23T14:37:58.666Z,39.90
2018-06-23T14:40:31.702Z,39.87
2018-06-23T14:43:05.423Z,39.88
2018-06-23T14:45:38.372Z,39.86
2018-06-23T14:48:11.949Z,39.84
2018-06-23T14:50:45.294Z,39.85
2018-06-23T14:53:18.525Z,39.86
2018-06-23T14:55:51.722Z,39.87
2018-06-23T14:58:24.989Z,39.89
2018-06-23T15:00:58.056Z,39.89
2018-06-23T15:03:30.892Z,39.89
2018-06-23T15:06:08.824Z,39.90
2018-06-23T15:08:51.068Z,39.91
2018-06-23T15:11:32.745Z,39.91
2018-06-23T15:14:06.009Z,39.91
2018-06-23T15:16:39.330Z,39.91
2018-06-23T15:19:12.499Z,39.92
2018-06-23T15:21:45.644Z,39.92
2018-06-23T15:24:18.585Z,39.92
2018-06-23T15:26:51.720Z,39.91
2018-06-23T15:29:25.610Z,39.87
2018-06-23T15:32:01.967Z,39.88
2018-06-23T15:34:35.529Z,39.88
2018-06-23T15:37:08.709Z,39.86
2018-06-23T15:39:42.065Z,39.84
2018-06-23T15:42:15.239Z,39.84
2018-06-23T15:44:50.910Z,39.87
2018-06-23T15:47:29.904Z,39.88
2018-06-23T15:50:03.632Z,39.88
2018-06-23T15:52:36.970Z,39.88
2018-06-23T15:55:17.064Z,39.89
2018-06-23T15:57:50.427Z,39.86
2018-06-23T16:00:23.736Z,39.87
2018-06-23T16:02:59.368Z,39.89
2018-06-23T16:05:32.660Z,39.87
2018-06-23T16:08:13.731Z,39.89
2018-06-23T16:10:47.211Z,39.88
2018-06-23T16:13:21.069Z,39.88
2018-06-23T16:15:54.967Z,39.86
2018-06-23T16:18:28.436Z,39.84
2018-06-23T16:21:02.021Z,39.84
2018-06-23T16:23:38.462Z,39.84
2018-06-23T16:26:11.990Z,39.75
2018-06-23T16:28:45.442Z,39.69
2018-06-23T16:31:19.000Z,39.72
2018-06-23T16:33:52.245Z,39.70
2018-06-23T16:36:32.273Z,39.73
2018-06-23T16:39:06.590Z,39.79
2018-06-23T16:41:39.772Z,39.79
2018-06-23T16:44:13.284Z,39.83
2018-06-23T16:46:49.351Z,39.82
2018-06-23T16:49:22.978Z,39.82
2018-06-23T16:51:56.594Z,39.85
2018-06-23T16:54:29.806Z,39.85
2018-06-23T16:57:02.963Z,39.86
2018-06-23T16:59:35.858Z,39.86
2018-06-23T17:02:09.340Z,39.85
2018-06-23T17:04:44.044Z,39.87
2018-06-23T17:07:18.755Z,39.84
2018-06-23T17:09:52.212Z,39.85
2018-06-23T17:12:25.744Z,39.87
2018-06-23T17:14:59.295Z,39.86
2018-06-23T17:17:34.043Z,39.85
2018-06-23T17:20:09.249Z,39.84
2018-06-23T17:22:42.797Z,39.83
2018-06-23T17:25:16.093Z,39.85
2018-06-23T17:27:51.869Z,39.83
2018-06-23T17:30:27.406Z,39.84
2018-06-23T17:33:00.767Z,39.82
2018-06-23T17:35:34.436Z,39.82
2018-06-23T17:38:09.377Z,39.79
2018-06-23T17:40:42.728Z,39.78
2018-06-23T17:43:17.190Z,39.79
2018-06-23T17:45:52.015Z,39.77
2018-06-23T17:48:25.562Z,39.80
2018-06-23T17:50:58.805Z,39.76
2018-06-23T17:53:33.150Z,39.77
2018-06-23T17:56:08.232Z,39.78
2018-06-23T17:58:43.666Z,39.79
2018-06-23T18:01:17.104Z,39.79
2018-06-23T18:03:50.700Z,39.78
2018-06-23T18:06:26.403Z,39.79
2018-06-23T18:09:00.111Z,39.79
2018-06-23T18:11:34.288Z,39.80
2018-06-23T18:14:08.955Z,39.81
2018-06-23T18:16:42.451Z,39.79
2018-06-23T18:19:16.225Z,39.79
2018-06-23T18:21:50.704Z,39.77
2018-06-23T18:24:24.173Z,39.76
2018-06-23T18:26:59.004Z,39.76
2018-06-23T18:29:33.966Z,39.75
2018-06-23T18:32:07.189Z,39.76
2018-06-23T18:34:40.254Z,39.75
2018-06-23T18:37:13.528Z,39.74
2018-06-23T18:39:46.524Z,39.75
2018-06-23T18:42:19.662Z,39.75
2018-06-23T18:44:52.988Z,39.74
2018-06-23T18:47:25.917Z,39.75
2018-06-23T18:49:59.648Z,39.75
2018-06-23T18:52:32.624Z,39.55
2018-06-23T18:55:05.784Z,39.61
2018-06-23T18:57:39.432Z,39.66
2018-06-23T19:00:12.322Z,39.72
2018-06-23T19:02:45.397Z,39.70
2018-06-23T19:05:18.746Z,39.70
2018-06-23T19:07:51.655Z,39.71
2018-06-23T19:10:25.132Z,39.71
2018-06-23T19:12:58.101Z,39.70
2018-06-23T19:15:30.480Z,39.66
2018-06-23T19:18:03.580Z,39.71
2018-06-23T19:20:36.339Z,39.69
2018-06-23T19:23:09.226Z,39.67
2018-06-23T19:25:43.017Z,39.67
2018-06-23T19:28:17.077Z,39.68
2018-06-23T19:30:50.671Z,39.66
2018-06-23T19:33:23.798Z,39.64
2018-06-23T19:35:57.042Z,39.64
2018-06-23T19:38:30.292Z,39.62
2018-06-23T19:41:03.546Z,39.62
2018-06-23T19:43:36.495Z,39.61
2018-06-23T19:46:09.890Z,39.62
2018-06-23T19:48:43.611Z,39.61
2018-06-23T19:51:17.017Z,39.60
2018-06-23T19:53:50.140Z,39.59
2018-06-23T19:56:23.233Z,39.63
2018-06-23T19:58:56.284Z,39.62
2018-06-23T20:01:29.345Z,39.62
2018-06-23T20:04:02.531Z,39.63
2018-06-23T20:06:35.230Z,39.63
2018-06-23T20:09:11.189Z,39.63
2018-06-23T20:11:43.885Z,39.63
2018-06-23T20:14:16.920Z,39.64
2018-06-23T20:16:50.257Z,39.64
2018-06-23T20:19:22.879Z,39.63
2018-06-23T20:21:55.815Z,39.62
2018-06-23T20:24:29.307Z,39.61
2018-06-23T20:27:02.218Z,39.58
2018-06-23T20:29:35.083Z,39.57
2018-06-23T20:32:08.192Z,39.54
2018-06-23T20:34:41.221Z,39.53
2018-06-23T20:37:14.038Z,39.54
2018-06-23T20:39:46.906Z,39.51
2018-06-23T20:42:19.639Z,39.53
2018-06-23T20:44:52.652Z,39.48
2018-06-23T20:47:25.165Z,39.52
2018-06-23T20:49:58.395Z,39.55
2018-06-23T20:52:30.728Z,39.53
2018-06-23T20:55:03.850Z,39.54
2018-06-23T20:57:36.955Z,39.54
2018-06-23T21:00:10.274Z,39.54
2018-06-23T21:02:43.382Z,39.53
2018-06-23T21:05:16.545Z,39.53
2018-06-23T21:07:49.342Z,39.49
2018-06-23T21:10:32.714Z,39.50
2018-06-23T21:13:04.992Z,39.46
2018-06-23T21:15:38.524Z,39.47
2018-06-23T21:18:11.563Z,39.47
2018-06-23T21:20:44.805Z,39.45
2018-06-23T21:23:17.516Z,39.42
2018-06-23T21:25:50.466Z,39.42
2018-06-23T21:28:23.383Z,39.40
2018-06-23T21:30:56.432Z,39.38
2018-06-23T21:33:29.712Z,39.41
2018-06-23T21:36:02.871Z,39.38
2018-06-23T21:38:35.113Z,39.35
2018-06-23T21:41:07.916Z,39.38
2018-06-23T21:43:40.723Z,39.36
2018-06-23T21:46:14.667Z,39.39
2018-06-23T21:48:47.682Z,39.35
2018-06-23T21:51:20.475Z,39.32
2018-06-23T21:53:53.534Z,39.34
2018-06-23T21:56:26.328Z,39.35
2018-06-23T21:58:59.793Z,39.34
2018-06-23T22:01:33.370Z,39.33
2018-06-23T22:04:06.695Z,39.29
2018-06-23T22:06:39.862Z,39.31
2018-06-23T22:09:13.330Z,39.28
2018-06-23T22:11:47.516Z,39.27
2018-06-23T22:14:20.333Z,39.30
2018-06-23T22:16:53.393Z,39.25
2018-06-23T22:19:26.188Z,39.24
2018-06-23T22:21:59.204Z,39.24
2018-06-23T22:24:32.038Z,39.22
2018-06-23T22:27:04.935Z,39.24
2018-06-23T22:29:37.504Z,39.24
2018-06-23T22:32:09.979Z,39.16
2018-06-23T22:34:42.838Z,39.17
2018-06-23T22:37:15.482Z,39.17
2018-06-23T22:39:48.450Z,39.20
2018-06-23T22:42:22.503Z,39.17
2018-06-23T22:44:54.925Z,39.17
2018-06-23T22:47:27.855Z,39.20
2018-06-23T22:50:00.384Z,39.15
2018-06-23T22:52:33.289Z,39.16
2018-06-23T22:55:05.650Z,39.17
2018-06-23T22:57:38.424Z,39.17
2018-06-23T23:00:15.715Z,39.13
2018-06-23T23:02:48.548Z,39.16
2018-06-23T23:05:21.084Z,39.09
2018-06-23T23:07:54.274Z,39.12
2018-06-23T23:10:26.895Z,39.09
2018-06-23T23:13:00.532Z,39.07
2018-06-23T23:15:33.320Z,39.11
2018-06-23T23:18:06.348Z,39.05
2018-06-23T23:20:39.528Z,39.05
2018-06-23T23:23:12.598Z,39.04
2018-06-23T23:25:45.368Z,39.05
2018-06-23T23:28:18.142Z,39.09
2018-06-23T23:30:50.388Z,39.06
2018-06-23T23:33:23.256Z,39.07
2018-06-23T23:35:56.308Z,39.04
2018-06-23T23:38:28.672Z,39.03
2018-06-23T23:41:01.019Z,39.03
2018-06-23T23:43:33.801Z,39.04
2018-06-23T23:46:06.837Z,39.01
2018-06-23T23:48:39.013Z,39.03
2018-06-23T23:51:12.030Z,38.96
2018-06-23T23:53:45.062Z,39.00
2018-06-23T23:56:17.644Z,38.95
2018-06-23T23:58:50.772Z,38.89
